SAS380 ENGM-ENVA
Flight info
| Callsign | SAS380 |
|---|---|
| Flight time | 0h 40m |
| Altitude | 36000 |
| Route | RIBBE DCT GIGNI DCT VEVOD |
| Aircraft | A319/M-SDE3FGHIRWY/LB1 |
Departure
| Time | 2026-05-07 19:45 |
|---|---|
| Airport | Oslo-Gardermoen International Airport (ENGM) |
Arrival
| Time | 2026-05-07 20:26 |
|---|---|
| Airport | Trondheim Airport, Værnes (ENVA) |
| Time | Latitude | Longitude | Altitude | Speed | Heading |
|---|---|---|---|---|---|
| 2026-05-07 19:23 | 60.19669 | 11.09983 | 685 ft | 0 kts | 107° |
| 2026-05-07 19:36 | 60.19669 | 11.09980 | 680 ft | 1 kts | 107° |
| 2026-05-07 19:37 | 60.19674 | 11.09948 | 682 ft | 3 kts | 107° |
| 2026-05-07 19:37 | 60.19680 | 11.09909 | 682 ft | 3 kts | 107° |
| 2026-05-07 19:37 | 60.19684 | 11.09880 | 680 ft | 1 kts | 107° |
| 2026-05-07 19:37 | 60.19685 | 11.09879 | 685 ft | 0 kts | 107° |
| 2026-05-07 19:41 | 60.19682 | 11.09889 | 685 ft | 2 kts | 109° |
| 2026-05-07 19:41 | 60.19692 | 11.09892 | 685 ft | 2 kts | 347° |
| 2026-05-07 19:41 | 60.19738 | 11.09818 | 685 ft | 13 kts | 330° |
| 2026-05-07 19:41 | 60.19837 | 11.09842 | 683 ft | 17 kts | 16° |
| 2026-05-07 19:42 | 60.19959 | 11.09913 | 681 ft | 14 kts | 19° |
| 2026-05-07 19:42 | 60.19968 | 11.10046 | 683 ft | 12 kts | 112° |
| 2026-05-07 19:42 | 60.19939 | 11.10224 | 685 ft | 15 kts | 103° |
| 2026-05-07 19:42 | 60.19908 | 11.10453 | 682 ft | 19 kts | 106° |
| 2026-05-07 19:43 | 60.19868 | 11.10734 | 684 ft | 22 kts | 106° |
| 2026-05-07 19:43 | 60.19833 | 11.10984 | 682 ft | 19 kts | 106° |
| 2026-05-07 19:43 | 60.19793 | 11.11258 | 680 ft | 20 kts | 106° |
| 2026-05-07 19:43 | 60.19744 | 11.11492 | 681 ft | 18 kts | 116° |
| 2026-05-07 19:44 | 60.19704 | 11.11743 | 681 ft | 19 kts | 104° |
| 2026-05-07 19:44 | 60.19662 | 11.11891 | 685 ft | 12 kts | 129° |
| 2026-05-07 19:44 | 60.19613 | 11.11961 | 684 ft | 8 kts | 187° |
| 2026-05-07 19:44 | 60.19554 | 11.11928 | 684 ft | 14 kts | 197° |
| 2026-05-07 19:45 | 60.19251 | 11.11746 | 682 ft | 78 kts | 195° |
| 2026-05-07 19:45 | 60.18518 | 11.11325 | 681 ft | 139 kts | 196° |
| 2026-05-07 19:45 | 60.17462 | 11.10710 | 1007 ft | 162 kts | 195° |
| 2026-05-07 19:45 | 60.16390 | 11.10076 | 1807 ft | 161 kts | 196° |
| 2026-05-07 19:46 | 60.15311 | 11.09459 | 2581 ft | 162 kts | 195° |
| 2026-05-07 19:46 | 60.14170 | 11.08850 | 3079 ft | 180 kts | 194° |
| 2026-05-07 19:46 | 60.12881 | 11.08510 | 3624 ft | 195 kts | 169° |
| 2026-05-07 19:46 | 60.11678 | 11.09967 | 4144 ft | 218 kts | 130° |
| 2026-05-07 19:47 | 60.10768 | 11.12533 | 4918 ft | 236 kts | 125° |
| 2026-05-07 19:47 | 60.09753 | 11.15331 | 5567 ft | 259 kts | 127° |
| 2026-05-07 19:47 | 60.08613 | 11.18304 | 6401 ft | 274 kts | 128° |
| 2026-05-07 19:47 | 60.07687 | 11.21607 | 7547 ft | 275 kts | 109° |
| 2026-05-07 19:48 | 60.07452 | 11.25434 | 8547 ft | 283 kts | 85° |
| 2026-05-07 19:48 | 60.08031 | 11.29218 | 9530 ft | 289 kts | 59° |
| 2026-05-07 19:48 | 60.09408 | 11.32146 | 10463 ft | 293 kts | 31° |
| 2026-05-07 19:48 | 60.11319 | 11.33578 | 11202 ft | 302 kts | 5° |
| 2026-05-07 19:49 | 60.13493 | 11.33827 | 11610 ft | 323 kts | 359° |
| 2026-05-07 19:49 | 60.15779 | 11.33953 | 12351 ft | 332 kts | 358° |
| 2026-05-07 19:49 | 60.18102 | 11.34075 | 13226 ft | 337 kts | 358° |
| 2026-05-07 19:49 | 60.20458 | 11.34213 | 14094 ft | 341 kts | 358° |
| 2026-05-07 19:50 | 60.22845 | 11.34372 | 14865 ft | 345 kts | 358° |
| 2026-05-07 19:50 | 60.25257 | 11.34551 | 15644 ft | 349 kts | 358° |
| 2026-05-07 19:50 | 60.27700 | 11.34741 | 16423 ft | 353 kts | 358° |
| 2026-05-07 19:50 | 60.30169 | 11.34934 | 17204 ft | 357 kts | 357° |
| 2026-05-07 19:51 | 60.32668 | 11.35128 | 17990 ft | 361 kts | 357° |
| 2026-05-07 19:51 | 60.35196 | 11.35321 | 18719 ft | 365 kts | 357° |
| 2026-05-07 19:51 | 60.37744 | 11.35513 | 19412 ft | 368 kts | 356° |
| 2026-05-07 19:51 | 60.40280 | 11.35700 | 20118 ft | 371 kts | 356° |
| 2026-05-07 19:52 | 60.42865 | 11.35896 | 20836 ft | 373 kts | 356° |
| 2026-05-07 19:52 | 60.45470 | 11.36098 | 21541 ft | 376 kts | 356° |
| 2026-05-07 19:52 | 60.48091 | 11.36300 | 22226 ft | 378 kts | 355° |
| 2026-05-07 19:52 | 60.50732 | 11.36504 | 22908 ft | 381 kts | 355° |
| 2026-05-07 19:53 | 60.53391 | 11.36711 | 23568 ft | 384 kts | 355° |
| 2026-05-07 19:53 | 60.56065 | 11.36918 | 24122 ft | 386 kts | 355° |
| 2026-05-07 19:53 | 60.58762 | 11.37124 | 24660 ft | 389 kts | 355° |
| 2026-05-07 19:53 | 60.61469 | 11.37331 | 25204 ft | 391 kts | 355° |
| 2026-05-07 19:54 | 60.64192 | 11.37543 | 25741 ft | 393 kts | 354° |
| 2026-05-07 19:54 | 60.66937 | 11.37757 | 26275 ft | 396 kts | 354° |
| 2026-05-07 19:54 | 60.69694 | 11.37971 | 26798 ft | 398 kts | 354° |
| 2026-05-07 19:54 | 60.72470 | 11.38187 | 27313 ft | 400 kts | 354° |
| 2026-05-07 19:55 | 60.75258 | 11.38401 | 27838 ft | 403 kts | 354° |
| 2026-05-07 19:55 | 60.78070 | 11.38614 | 28360 ft | 405 kts | 353° |
| 2026-05-07 19:55 | 60.80895 | 11.38831 | 28879 ft | 407 kts | 353° |
| 2026-05-07 19:55 | 60.83732 | 11.39054 | 29389 ft | 410 kts | 353° |
| 2026-05-07 19:56 | 60.86558 | 11.39280 | 29876 ft | 412 kts | 353° |
| 2026-05-07 19:56 | 60.89431 | 11.39510 | 30320 ft | 415 kts | 353° |
| 2026-05-07 19:56 | 60.92325 | 11.39738 | 30688 ft | 417 kts | 353° |
| 2026-05-07 19:56 | 60.95238 | 11.39961 | 31046 ft | 420 kts | 353° |
| 2026-05-07 19:57 | 60.98171 | 11.40187 | 31391 ft | 423 kts | 353° |
| 2026-05-07 19:57 | 61.01120 | 11.40421 | 31733 ft | 426 kts | 353° |
| 2026-05-07 19:57 | 61.04093 | 11.40661 | 32091 ft | 428 kts | 353° |
| 2026-05-07 19:57 | 61.07072 | 11.40902 | 32563 ft | 428 kts | 353° |
| 2026-05-07 19:58 | 61.10041 | 11.41143 | 33052 ft | 427 kts | 353° |
| 2026-05-07 19:58 | 61.13011 | 11.41387 | 33537 ft | 427 kts | 353° |
| 2026-05-07 19:58 | 61.15978 | 11.41632 | 34028 ft | 427 kts | 353° |
| 2026-05-07 19:58 | 61.18946 | 11.41874 | 34436 ft | 427 kts | 353° |
| 2026-05-07 19:59 | 61.21920 | 11.42110 | 34798 ft | 428 kts | 353° |
| 2026-05-07 19:59 | 61.24904 | 11.42344 | 35071 ft | 430 kts | 353° |
| 2026-05-07 19:59 | 61.30824 | 11.42823 | 35138 ft | 421 kts | 353° |
| 2026-05-07 20:00 | 61.36654 | 11.43291 | 35138 ft | 419 kts | 353° |
| 2026-05-07 20:00 | 61.42471 | 11.43762 | 35139 ft | 418 kts | 353° |
| 2026-05-07 20:01 | 61.48284 | 11.44230 | 35139 ft | 418 kts | 353° |
| 2026-05-07 20:01 | 61.54066 | 11.44710 | 35147 ft | 419 kts | 353° |
| 2026-05-07 20:02 | 61.59898 | 11.45181 | 35145 ft | 424 kts | 353° |
| 2026-05-07 20:02 | 61.65861 | 11.45648 | 35146 ft | 431 kts | 354° |
| 2026-05-07 20:03 | 61.71820 | 11.45549 | 34788 ft | 426 kts | 348° |
| 2026-05-07 20:03 | 61.74803 | 11.45154 | 33745 ft | 433 kts | 347° |
| 2026-05-07 20:03 | 61.77802 | 11.44692 | 33165 ft | 429 kts | 347° |
| 2026-05-07 20:04 | 61.80757 | 11.44230 | 32678 ft | 422 kts | 347° |
| 2026-05-07 20:04 | 61.83673 | 11.43780 | 32002 ft | 421 kts | 347° |
| 2026-05-07 20:04 | 61.86582 | 11.43336 | 31477 ft | 416 kts | 347° |
| 2026-05-07 20:04 | 61.89454 | 11.42910 | 30975 ft | 411 kts | 347° |
| 2026-05-07 20:05 | 61.92291 | 11.42500 | 30473 ft | 406 kts | 347° |
| 2026-05-07 20:05 | 61.95087 | 11.42099 | 29935 ft | 400 kts | 347° |
| 2026-05-07 20:05 | 61.97844 | 11.41705 | 29450 ft | 394 kts | 347° |
| 2026-05-07 20:05 | 62.00554 | 11.41316 | 28979 ft | 388 kts | 347° |
| 2026-05-07 20:06 | 62.03225 | 11.40926 | 28515 ft | 382 kts | 347° |
| 2026-05-07 20:06 | 62.05855 | 11.40538 | 28062 ft | 376 kts | 347° |
| 2026-05-07 20:06 | 62.08451 | 11.40155 | 27623 ft | 371 kts | 347° |
| 2026-05-07 20:06 | 62.11007 | 11.39773 | 27188 ft | 367 kts | 347° |
| 2026-05-07 20:07 | 62.13541 | 11.39398 | 26777 ft | 363 kts | 347° |
| 2026-05-07 20:07 | 62.16046 | 11.39029 | 26370 ft | 359 kts | 347° |
| 2026-05-07 20:07 | 62.18526 | 11.38666 | 25962 ft | 354 kts | 347° |
| 2026-05-07 20:07 | 62.20972 | 11.38306 | 25582 ft | 350 kts | 347° |
| 2026-05-07 20:08 | 62.23388 | 11.37948 | 25225 ft | 345 kts | 347° |
| 2026-05-07 20:08 | 62.25758 | 11.37596 | 24854 ft | 341 kts | 347° |
| 2026-05-07 20:08 | 62.28112 | 11.37239 | 24450 ft | 337 kts | 347° |
| 2026-05-07 20:08 | 62.30439 | 11.36885 | 24072 ft | 334 kts | 348° |
| 2026-05-07 20:09 | 62.32745 | 11.36538 | 23685 ft | 330 kts | 347° |
| 2026-05-07 20:09 | 62.35030 | 11.36197 | 23259 ft | 328 kts | 347° |
| 2026-05-07 20:09 | 62.37291 | 11.35862 | 22869 ft | 325 kts | 348° |
| 2026-05-07 20:10 | 62.41786 | 11.35174 | 22082 ft | 322 kts | 348° |
| 2026-05-07 20:10 | 62.44019 | 11.34833 | 21675 ft | 321 kts | 348° |
| 2026-05-07 20:10 | 62.46246 | 11.34493 | 21272 ft | 320 kts | 348° |
| 2026-05-07 20:10 | 62.48464 | 11.34161 | 20858 ft | 319 kts | 348° |
| 2026-05-07 20:11 | 62.50643 | 11.33833 | 20453 ft | 318 kts | 349° |
| 2026-05-07 20:11 | 62.52849 | 11.33494 | 20044 ft | 317 kts | 349° |
| 2026-05-07 20:11 | 62.55049 | 11.33157 | 19626 ft | 317 kts | 349° |
| 2026-05-07 20:11 | 62.57245 | 11.32827 | 19213 ft | 316 kts | 349° |
| 2026-05-07 20:12 | 62.59430 | 11.32503 | 18799 ft | 315 kts | 350° |
| 2026-05-07 20:12 | 62.61613 | 11.32180 | 18379 ft | 314 kts | 350° |
| 2026-05-07 20:12 | 62.63789 | 11.31854 | 17921 ft | 313 kts | 350° |
| 2026-05-07 20:12 | 62.65954 | 11.31528 | 17507 ft | 310 kts | 350° |
| 2026-05-07 20:13 | 62.68102 | 11.31197 | 17099 ft | 308 kts | 351° |
| 2026-05-07 20:13 | 62.69514 | 11.30977 | 16828 ft | 307 kts | 351° |
| 2026-05-07 20:13 | 62.71641 | 11.30650 | 16433 ft | 305 kts | 351° |
| 2026-05-07 20:13 | 62.73758 | 11.30325 | 16022 ft | 304 kts | 351° |
| 2026-05-07 20:14 | 62.75855 | 11.30006 | 15619 ft | 302 kts | 351° |
| 2026-05-07 20:14 | 62.77948 | 11.29688 | 15219 ft | 300 kts | 351° |
| 2026-05-07 20:14 | 62.80028 | 11.29368 | 14825 ft | 299 kts | 351° |
| 2026-05-07 20:14 | 62.82099 | 11.29050 | 14427 ft | 298 kts | 351° |
| 2026-05-07 20:15 | 62.84164 | 11.28734 | 14030 ft | 297 kts | 352° |
| 2026-05-07 20:15 | 62.86225 | 11.28416 | 13605 ft | 297 kts | 352° |
| 2026-05-07 20:15 | 62.88276 | 11.28096 | 13208 ft | 295 kts | 352° |
| 2026-05-07 20:15 | 62.90320 | 11.27777 | 12817 ft | 294 kts | 352° |
| 2026-05-07 20:16 | 62.92354 | 11.27459 | 12425 ft | 293 kts | 352° |
| 2026-05-07 20:16 | 62.94380 | 11.27146 | 12037 ft | 291 kts | 352° |
| 2026-05-07 20:16 | 62.96397 | 11.26835 | 11656 ft | 291 kts | 352° |
| 2026-05-07 20:16 | 62.98413 | 11.26519 | 11260 ft | 290 kts | 352° |
| 2026-05-07 20:17 | 63.00422 | 11.26198 | 10872 ft | 289 kts | 352° |
| 2026-05-07 20:17 | 63.02425 | 11.25882 | 10481 ft | 289 kts | 353° |
| 2026-05-07 20:17 | 63.04422 | 11.25566 | 10185 ft | 287 kts | 353° |
| 2026-05-07 20:17 | 63.06425 | 11.25242 | 10109 ft | 290 kts | 353° |
| 2026-05-07 20:18 | 63.08442 | 11.24919 | 9979 ft | 290 kts | 353° |
| 2026-05-07 20:18 | 63.10467 | 11.24598 | 9506 ft | 293 kts | 353° |
| 2026-05-07 20:18 | 63.12484 | 11.24283 | 9101 ft | 289 kts | 353° |
| 2026-05-07 20:18 | 63.14466 | 11.23975 | 8683 ft | 288 kts | 353° |
| 2026-05-07 20:19 | 63.16439 | 11.23670 | 8484 ft | 280 kts | 353° |
| 2026-05-07 20:19 | 63.18368 | 11.23372 | 8228 ft | 276 kts | 353° |
| 2026-05-07 20:19 | 63.20276 | 11.23071 | 7848 ft | 273 kts | 354° |
| 2026-05-07 20:19 | 63.22169 | 11.22756 | 7505 ft | 273 kts | 352° |
| 2026-05-07 20:20 | 63.24055 | 11.22390 | 7186 ft | 271 kts | 352° |
| 2026-05-07 20:20 | 63.25925 | 11.21956 | 6816 ft | 270 kts | 349° |
| 2026-05-07 20:20 | 63.27760 | 11.21127 | 6459 ft | 269 kts | 344° |
| 2026-05-07 20:20 | 63.29554 | 11.20136 | 6244 ft | 262 kts | 343° |
| 2026-05-07 20:21 | 63.31299 | 11.19234 | 6168 ft | 251 kts | 344° |
| 2026-05-07 20:21 | 63.32947 | 11.18323 | 6131 ft | 240 kts | 343° |
| 2026-05-07 20:21 | 63.34548 | 11.17433 | 5662 ft | 236 kts | 343° |
| 2026-05-07 20:21 | 63.36125 | 11.16559 | 5192 ft | 231 kts | 344° |
| 2026-05-07 20:22 | 63.37685 | 11.15761 | 4907 ft | 228 kts | 346° |
| 2026-05-07 20:22 | 63.39182 | 11.15139 | 4693 ft | 209 kts | 353° |
| 2026-05-07 20:22 | 63.40539 | 11.15206 | 4610 ft | 184 kts | 0° |
| 2026-05-07 20:22 | 63.41744 | 11.15018 | 4397 ft | 161 kts | 345° |
| 2026-05-07 20:23 | 63.42730 | 11.14163 | 3998 ft | 149 kts | 334° |
| 2026-05-07 20:23 | 63.43679 | 11.13249 | 3487 ft | 148 kts | 335° |
| 2026-05-07 20:23 | 63.44591 | 11.12165 | 2911 ft | 151 kts | 327° |
| 2026-05-07 20:23 | 63.45400 | 11.10686 | 2374 ft | 151 kts | 314° |
| 2026-05-07 20:24 | 63.45969 | 11.08797 | 1962 ft | 143 kts | 290° |
| 2026-05-07 20:24 | 63.46025 | 11.06662 | 1558 ft | 136 kts | 257° |
| 2026-05-07 20:24 | 63.45819 | 11.04638 | 1217 ft | 130 kts | 257° |
| 2026-05-07 20:24 | 63.45728 | 11.02675 | 946 ft | 125 kts | 268° |
| 2026-05-07 20:25 | 63.45743 | 11.00769 | 769 ft | 123 kts | 270° |
| 2026-05-07 20:25 | 63.45774 | 10.98857 | 595 ft | 123 kts | 270° |
| 2026-05-07 20:25 | 63.45758 | 10.96954 | 368 ft | 122 kts | 266° |
| 2026-05-07 20:25 | 63.45756 | 10.95048 | 192 ft | 123 kts | 268° |
| 2026-05-07 20:26 | 63.45758 | 10.93161 | 52 ft | 113 kts | 270° |
| 2026-05-07 20:26 | 63.45761 | 10.91878 | 39 ft | 38 kts | 270° |
| 2026-05-07 20:26 | 63.45747 | 10.91535 | 36 ft | 14 kts | 226° |
| 2026-05-07 20:26 | 63.45645 | 10.91517 | 38 ft | 13 kts | 184° |
| 2026-05-07 20:27 | 63.45594 | 10.91566 | 39 ft | 9 kts | 99° |
| 2026-05-07 20:27 | 63.45596 | 10.91703 | 39 ft | 5 kts | 89° |
| 2026-05-07 20:27 | 63.45587 | 10.91759 | 39 ft | 1 kts | 159° |
| 2026-05-07 20:27 | 63.45580 | 10.91755 | 39 ft | 2 kts | 185° |
| 2026-05-07 20:28 | 63.45559 | 10.91747 | 39 ft | 5 kts | 188° |
| 2026-05-07 20:28 | 63.45517 | 10.91745 | 39 ft | 6 kts | 179° |
| 2026-05-07 20:28 | 63.45504 | 10.91745 | 36 ft | 1 kts | 181° |
| 2026-05-07 20:28 | 63.45500 | 10.91745 | 37 ft | 1 kts | 180° |
| 2026-05-07 20:29 | 63.45499 | 10.91745 | 37 ft | 0 kts | 180° |